createdAt,value
2023-05-25T00:04:00.106Z,10.09
2023-05-25T00:14:00.182Z,9.82
2023-05-25T00:24:00.186Z,9.56
2023-05-25T00:34:00.235Z,9.36
2023-05-25T00:44:00.177Z,9.27
2023-05-25T00:54:00.167Z,9.27
2023-05-25T01:04:00.229Z,9.33
2023-05-25T01:14:00.705Z,9.42
2023-05-25T01:24:01.328Z,9.54
2023-05-25T01:34:01.232Z,9.67
2023-05-25T01:44:01.280Z,9.78
2023-05-25T01:54:01.881Z,9.88
2023-05-25T02:04:02.443Z,9.92
2023-05-25T02:14:02.376Z,9.85
2023-05-25T02:24:02.602Z,9.74
2023-05-25T02:34:02.637Z,9.61
2023-05-25T02:44:02.473Z,9.40
2023-05-25T02:54:02.461Z,9.15
2023-05-25T03:04:04.298Z,8.90
2023-05-25T03:14:04.753Z,8.66
2023-05-25T03:24:04.665Z,8.45
2023-05-25T03:34:07.570Z,8.30
2023-05-25T03:44:07.956Z,8.20
2023-05-25T03:54:08.537Z,8.15
2023-05-25T04:04:08.521Z,8.20
2023-05-25T04:14:10.376Z,8.39
2023-05-25T04:24:11.249Z,8.76
2023-05-25T04:34:15.860Z,9.27
2023-05-25T04:44:21.874Z,9.84
2023-05-25T04:54:21.739Z,10.36
2023-05-25T05:04:22.221Z,10.83
2023-05-25T05:14:22.725Z,11.28
2023-05-25T05:24:22.645Z,11.73
2023-05-25T05:34:22.837Z,12.21
2023-05-25T05:44:25.242Z,12.92
2023-05-25T05:54:24.688Z,13.81
2023-05-25T06:04:26.834Z,14.83
2023-05-25T06:14:28.594Z,16.47
2023-05-25T06:24:28.711Z,19.00
2023-05-25T06:34:28.705Z,22.41
2023-05-25T06:44:28.773Z,26.08
2023-05-25T06:54:28.669Z,29.18
2023-05-25T07:04:28.724Z,31.67
2023-05-25T07:14:28.686Z,33.79
2023-05-25T07:24:28.729Z,35.86
2023-05-25T07:34:28.745Z,37.90
2023-05-25T07:44:29.580Z,39.95
2023-05-25T07:54:29.765Z,41.93
2023-05-25T08:04:29.967Z,43.40
2023-05-25T08:14:29.778Z,44.46
2023-05-25T08:24:29.797Z,45.26
2023-05-25T08:34:29.937Z,44.66
2023-05-25T08:44:29.867Z,43.85
2023-05-25T08:54:29.855Z,43.73
2023-05-25T09:04:30.685Z,44.74
2023-05-25T09:14:30.912Z,46.28
2023-05-25T09:24:30.939Z,46.09
2023-05-25T09:34:33.499Z,45.44
2023-05-25T09:44:33.970Z,45.36
2023-05-25T09:54:34.027Z,44.60
2023-05-25T10:04:34.032Z,44.10
2023-05-25T10:14:34.021Z,43.79
2023-05-25T10:24:34.016Z,42.47
2023-05-25T10:34:34.086Z,40.35
2023-05-25T10:44:34.104Z,36.77
2023-05-25T10:54:35.676Z,32.93
2023-05-25T11:04:37.198Z,30.14
2023-05-25T11:14:39.026Z,28.25
2023-05-25T11:24:39.083Z,26.40
2023-05-25T11:34:41.014Z,24.87
2023-05-25T11:44:41.857Z,23.72
2023-05-25T11:54:42.145Z,22.86
2023-05-25T12:04:43.062Z,22.54
2023-05-25T12:14:43.206Z,22.20
2023-05-25T12:24:43.156Z,21.77
2023-05-25T12:34:43.291Z,21.17
2023-05-25T12:44:43.275Z,20.86
2023-05-25T12:54:44.367Z,20.78
2023-05-25T13:04:44.365Z,21.01
2023-05-25T13:14:44.244Z,21.55
2023-05-25T13:24:44.260Z,22.01
2023-05-25T13:34:44.394Z,22.36
2023-05-25T13:44:44.296Z,22.31
2023-05-25T13:54:44.298Z,22.03
2023-05-25T14:04:44.378Z,21.56
2023-05-25T14:14:44.303Z,21.26
2023-05-25T14:24:44.461Z,21.53
2023-05-25T14:34:44.378Z,21.53
2023-05-25T14:44:44.451Z,20.93
2023-05-25T14:54:44.768Z,20.24
2023-05-25T15:04:47.260Z,19.66
2023-05-25T15:14:47.431Z,19.17
2023-05-25T15:24:47.417Z,18.86
2023-05-25T15:34:47.490Z,18.63
2023-05-25T15:44:47.484Z,18.50
2023-05-25T15:54:47.470Z,18.41
2023-05-25T16:04:47.507Z,18.36
2023-05-25T16:14:47.529Z,18.37
2023-05-25T16:24:47.513Z,18.39
2023-05-25T16:34:47.563Z,18.41
2023-05-25T16:44:47.693Z,18.40
2023-05-25T16:54:47.532Z,18.37
2023-05-25T17:04:47.584Z,18.36
2023-05-25T17:14:47.578Z,18.33
2023-05-25T17:24:47.602Z,18.26
2023-05-25T17:34:47.621Z,18.16
2023-05-25T17:44:47.650Z,18.06
2023-05-25T17:54:47.620Z,17.94
2023-05-25T18:04:47.648Z,17.79
2023-05-25T18:14:47.692Z,17.63
2023-05-25T18:24:47.773Z,17.48
2023-05-25T18:34:48.511Z,17.30
2023-05-25T18:44:48.738Z,17.08
2023-05-25T18:54:49.244Z,16.84
2023-05-25T19:04:50.401Z,16.60
2023-05-25T19:14:50.817Z,16.30
2023-05-25T19:25:00.405Z,15.97
2023-05-25T19:34:52.754Z,15.63
2023-05-25T19:44:52.757Z,15.31
2023-05-25T19:54:52.785Z,14.99
2023-05-25T20:04:52.816Z,14.68
2023-05-25T20:14:54.035Z,14.36
2023-05-25T20:24:56.024Z,14.03
2023-05-25T20:34:55.861Z,13.70
2023-05-25T20:44:55.997Z,13.39
2023-05-25T20:54:55.890Z,13.11
2023-05-25T21:04:55.912Z,12.84
2023-05-25T21:14:56.025Z,12.58
2023-05-25T21:24:55.870Z,12.35
2023-05-25T21:34:56.000Z,12.14
2023-05-25T21:44:56.226Z,11.91
2023-05-25T21:54:56.040Z,11.68
2023-05-25T22:04:55.942Z,11.49
2023-05-25T22:14:56.005Z,11.32
2023-05-25T22:24:55.982Z,11.15
2023-05-25T22:34:55.983Z,11.00
2023-05-25T22:44:56.000Z,10.96
2023-05-25T22:54:56.109Z,11.09
2023-05-25T23:04:56.053Z,11.24
2023-05-25T23:14:58.395Z,11.29
2023-05-25T23:24:58.238Z,11.34
2023-05-25T23:34:58.066Z,11.37
2023-05-25T23:44:58.104Z,11.36
2023-05-25T23:54:58.069Z,11.37
